createdAt,value
2019-05-07T00:00:29.972Z,11.63
2019-05-07T00:02:58.099Z,12.37
2019-05-07T00:05:26.471Z,15.43
2019-05-07T00:07:54.711Z,14.23
2019-05-07T00:10:24.859Z,9.43
2019-05-07T00:12:53.378Z,10.93
2019-05-07T00:15:23.008Z,15.27
2019-05-07T00:17:52.244Z,16.20
2019-05-07T00:20:23.019Z,11.57
2019-05-07T00:22:53.253Z,15.20
2019-05-07T00:25:22.872Z,11.27
2019-05-07T00:27:52.390Z,14.03
2019-05-07T00:30:22.332Z,8.50
2019-05-07T00:32:52.944Z,13.57
2019-05-07T00:35:24.146Z,12.73
2019-05-07T00:37:58.626Z,13.53
2019-05-07T00:40:38.310Z,9.97
2019-05-07T00:43:32.362Z,10.87
2019-05-07T00:46:13.028Z,9.17
2019-05-07T00:48:42.227Z,10.10
2019-05-07T00:51:29.037Z,11.17
2019-05-07T00:53:57.816Z,9.27
2019-05-07T00:56:26.161Z,11.43
2019-05-07T00:58:54.656Z,7.87
2019-05-07T01:01:23.437Z,10.67
2019-05-07T01:03:53.435Z,12.23
2019-05-07T01:06:22.733Z,11.10
2019-05-07T01:08:52.580Z,11.73
2019-05-07T01:11:22.679Z,11.73
2019-05-07T01:13:52.038Z,8.07
2019-05-07T01:16:22.228Z,10.50
2019-05-07T01:18:53.612Z,12.07
2019-05-07T01:21:22.706Z,9.47
2019-05-07T01:23:52.333Z,8.70
2019-05-07T01:26:22.043Z,12.90
2019-05-07T01:29:02.483Z,6.60
2019-05-07T01:31:38.890Z,9.97
2019-05-07T01:34:35.679Z,10.60
2019-05-07T01:37:03.818Z,10.33
2019-05-07T01:39:33.293Z,10.20
2019-05-07T01:42:02.173Z,12.13
2019-05-07T01:44:32.516Z,12.97
2019-05-07T01:47:02.533Z,10.03
2019-05-07T01:49:33.092Z,8.43
2019-05-07T01:52:02.584Z,14.63
2019-05-07T01:54:33.199Z,11.80
2019-05-07T01:57:02.971Z,15.10
2019-05-07T01:59:32.187Z,8.43
2019-05-07T02:02:07.574Z,9.23
2019-05-07T02:04:42.727Z,11.33
2019-05-07T02:07:28.767Z,9.50
2019-05-07T02:10:19.761Z,8.13
2019-05-07T02:12:48.209Z,10.27
2019-05-07T02:15:17.122Z,9.20
2019-05-07T02:17:45.277Z,12.63
2019-05-07T02:20:14.449Z,14.10
2019-05-07T02:22:42.841Z,13.30
2019-05-07T02:25:12.675Z,16.97
2019-05-07T02:27:42.107Z,15.43
2019-05-07T02:30:14.462Z,11.00
2019-05-07T02:32:43.220Z,10.07
2019-05-07T02:35:13.505Z,10.63
2019-05-07T02:37:55.712Z,12.17
2019-05-07T02:40:43.030Z,8.20
2019-05-07T02:43:14.069Z,12.43
2019-05-07T02:46:27.501Z,17.67
2019-05-07T02:49:07.702Z,9.50
2019-05-07T02:51:43.502Z,13.83
2019-05-07T02:54:24.617Z,14.43
2019-05-07T02:56:53.463Z,10.33
2019-05-07T02:59:23.375Z,8.17
2019-05-07T03:01:53.824Z,13.23
2019-05-07T03:04:25.071Z,10.93
2019-05-07T03:06:54.237Z,9.27
2019-05-07T03:09:22.918Z,11.07
2019-05-07T03:11:52.949Z,13.83
2019-05-07T03:14:23.340Z,13.97
2019-05-07T03:16:53.611Z,11.13
2019-05-07T03:19:24.213Z,13.00
2019-05-07T03:21:53.851Z,10.93
2019-05-07T03:24:36.909Z,8.00
2019-05-07T03:27:05.793Z,10.47
2019-05-07T03:29:36.645Z,13.23
2019-05-07T03:32:39.460Z,9.57
2019-05-07T03:35:27.710Z,10.30
2019-05-07T03:37:56.822Z,13.93
2019-05-07T03:40:25.057Z,13.37
2019-05-07T03:42:53.815Z,11.50
2019-05-07T03:45:46.552Z,9.47
2019-05-07T03:48:19.348Z,10.00
2019-05-07T03:50:47.948Z,9.93
2019-05-07T03:53:16.362Z,11.33
2019-05-07T03:55:45.061Z,17.07
2019-05-07T03:58:14.586Z,10.63
2019-05-07T04:00:44.649Z,13.57
2019-05-07T04:03:15.022Z,13.17
2019-05-07T04:05:44.012Z,11.03
2019-05-07T04:08:13.176Z,12.47
2019-05-07T04:10:44.162Z,9.00
2019-05-07T04:13:13.455Z,9.90
2019-05-07T04:15:43.791Z,11.80
2019-05-07T04:18:13.300Z,8.53
2019-05-07T04:20:43.486Z,11.60
2019-05-07T04:23:13.838Z,9.00
2019-05-07T04:26:03.863Z,10.63
2019-05-07T04:28:34.690Z,8.50
2019-05-07T04:31:04.250Z,11.00
2019-05-07T04:33:39.609Z,10.70
2019-05-07T04:36:33.720Z,8.77
2019-05-07T04:39:02.957Z,12.77
2019-05-07T04:41:33.008Z,13.00
2019-05-07T04:44:03.600Z,8.57
2019-05-07T04:46:33.350Z,11.23
2019-05-07T04:49:03.764Z,15.00
2019-05-07T04:51:39.264Z,13.20
2019-05-07T04:54:07.413Z,11.27
2019-05-07T04:56:35.608Z,11.10
2019-05-07T04:59:03.915Z,10.10
2019-05-07T05:01:36.170Z,15.73
2019-05-07T05:04:21.118Z,11.23
2019-05-07T05:06:34.829Z,15.97
2019-05-07T05:09:05.101Z,13.90
2019-05-07T05:11:33.947Z,11.43
2019-05-07T05:14:02.934Z,14.43
2019-05-07T05:16:32.862Z,10.93
2019-05-07T05:19:02.511Z,11.17
2019-05-07T05:21:52.833Z,11.07
2019-05-07T05:24:27.384Z,8.97
2019-05-07T05:26:55.887Z,8.67
2019-05-07T05:29:24.229Z,13.17
2019-05-07T05:31:52.953Z,13.17
2019-05-07T05:34:22.526Z,12.30
2019-05-07T05:36:52.614Z,9.93
2019-05-07T05:39:22.452Z,15.60
2019-05-07T05:41:55.305Z,8.57
2019-05-07T05:44:31.963Z,11.07
2019-05-07T05:47:02.274Z,7.03
2019-05-07T05:49:32.206Z,12.50
2019-05-07T05:52:19.515Z,11.97
2019-05-07T05:54:55.564Z,9.80
2019-05-07T05:57:51.858Z,10.47
2019-05-07T06:00:42.281Z,15.10
2019-05-07T06:03:37.135Z,15.17
2019-05-07T06:06:15.931Z,9.27
2019-05-07T06:08:59.124Z,10.87
2019-05-07T06:11:34.611Z,10.50
2019-05-07T06:14:22.179Z,7.07
2019-05-07T06:17:02.388Z,12.47
2019-05-07T06:19:37.578Z,14.30
2019-05-07T06:22:33.088Z,11.90
2019-05-07T06:25:14.858Z,6.40
2019-05-07T06:27:43.336Z,8.63
2019-05-07T06:30:12.170Z,12.97
2019-05-07T06:32:42.770Z,8.83
2019-05-07T06:35:12.314Z,9.80
2019-05-07T06:37:42.873Z,9.07
2019-05-07T06:40:33.691Z,8.30
2019-05-07T06:43:12.289Z,11.03
2019-05-07T06:45:43.187Z,9.03
2019-05-07T06:48:12.664Z,7.80
2019-05-07T06:50:55.713Z,12.97
2019-05-07T06:53:29.404Z,4.53
2019-05-07T06:55:59.620Z,9.33
2019-05-07T06:58:47.999Z,8.53
2019-05-07T07:01:27.694Z,12.37
2019-05-07T07:04:02.924Z,9.70
2019-05-07T07:06:52.503Z,8.27
2019-05-07T07:09:52.640Z,7.03
2019-05-07T07:12:26.023Z,10.70
2019-05-07T07:14:54.198Z,12.47
2019-05-07T07:17:22.454Z,11.97
2019-05-07T07:19:52.322Z,10.10
2019-05-07T07:22:22.296Z,9.17
2019-05-07T07:24:53.074Z,9.70
2019-05-07T07:27:22.704Z,9.93
2019-05-07T07:29:58.259Z,16.67
2019-05-07T07:32:33.271Z,12.17
2019-05-07T07:35:02.532Z,8.67
2019-05-07T07:37:38.318Z,11.63
2019-05-07T07:40:22.780Z,4.20
2019-05-07T07:42:52.107Z,15.23
2019-05-07T07:45:22.810Z,5.77
2019-05-07T07:47:53.036Z,5.67
2019-05-07T07:50:22.441Z,5.40
2019-05-07T07:52:52.904Z,4.67
2019-05-07T07:55:26.424Z,6.73
2019-05-07T07:58:14.565Z,7.10
2019-05-07T08:00:52.412Z,6.30
2019-05-07T08:03:22.564Z,4.20
2019-05-07T08:05:51.859Z,6.10
2019-05-07T08:08:22.033Z,3.07
2019-05-07T08:10:57.168Z,3.47
2019-05-07T08:13:26.072Z,7.40
2019-05-07T08:15:54.325Z,6.13
2019-05-07T08:18:22.512Z,6.40
2019-05-07T08:20:51.985Z,7.17
2019-05-07T08:23:22.656Z,3.57
2019-05-07T08:25:52.541Z,6.00
2019-05-07T08:28:23.200Z,8.10
2019-05-07T08:30:59.675Z,9.63
2019-05-07T08:33:32.461Z,7.20
2019-05-07T08:36:15.070Z,4.10
2019-05-07T08:38:52.844Z,5.00
2019-05-07T08:41:22.629Z,7.37
2019-05-07T08:44:07.316Z,8.40
2019-05-07T08:46:48.892Z,4.37
2019-05-07T08:49:17.972Z,8.53
2019-05-07T08:51:59.533Z,6.03
2019-05-07T08:54:32.111Z,4.80
2019-05-07T08:57:02.448Z,5.53
2019-05-07T08:59:32.206Z,4.23
2019-05-07T09:02:02.927Z,2.40
2019-05-07T09:04:32.620Z,4.00
2019-05-07T09:07:02.643Z,4.63
2019-05-07T09:09:32.407Z,5.13
2019-05-07T09:12:02.954Z,5.00
2019-05-07T09:14:31.990Z,3.50
2019-05-07T09:17:02.590Z,6.37
2019-05-07T09:19:32.399Z,2.60
2019-05-07T09:22:02.268Z,4.43
2019-05-07T09:24:32.988Z,5.50
2019-05-07T09:27:09.223Z,4.13
2019-05-07T09:29:53.124Z,6.67
2019-05-07T09:32:27.278Z,3.60
2019-05-07T09:34:55.874Z,4.87
2019-05-07T09:37:26.725Z,3.43
2019-05-07T09:39:56.682Z,5.80
2019-05-07T09:42:25.729Z,3.50
2019-05-07T09:44:55.996Z,5.13
2019-05-07T09:47:24.845Z,6.50
2019-05-07T09:50:04.003Z,3.93
2019-05-07T09:52:23.126Z,2.83
2019-05-07T09:54:52.297Z,4.37
2019-05-07T09:57:30.104Z,7.67
2019-05-07T09:59:53.002Z,4.10
2019-05-07T10:02:22.736Z,2.37
2019-05-07T10:04:52.614Z,1.80
2019-05-07T10:07:22.319Z,4.33
2019-05-07T10:09:52.548Z,3.77
2019-05-07T10:12:30.306Z,2.37
2019-05-07T10:14:58.890Z,1.60
2019-05-07T10:17:55.822Z,1.97
2019-05-07T10:20:25.659Z,2.73
2019-05-07T10:22:54.709Z,4.07
2019-05-07T10:25:24.980Z,3.27
2019-05-07T10:27:53.407Z,1.37
2019-05-07T10:30:21.938Z,2.53
2019-05-07T10:32:52.563Z,3.30
2019-05-07T10:35:22.741Z,2.67
2019-05-07T10:37:52.753Z,2.20
2019-05-07T10:40:22.625Z,1.87
2019-05-07T10:42:51.881Z,8.60
2019-05-07T10:45:49.270Z,3.70
2019-05-07T10:48:43.408Z,4.63
2019-05-07T10:51:12.318Z,2.37
2019-05-07T10:53:42.398Z,1.97
2019-05-07T10:56:11.805Z,2.83
2019-05-07T10:58:41.782Z,4.00
2019-05-07T11:01:13.128Z,1.10
2019-05-07T11:03:42.618Z,4.97
2019-05-07T11:06:11.995Z,2.97
2019-05-07T11:08:40.312Z,2.73
2019-05-07T11:11:09.336Z,5.53
2019-05-07T11:13:37.464Z,2.00
2019-05-07T11:16:11.622Z,3.70
2019-05-07T11:18:51.756Z,1.67
2019-05-07T11:21:29.583Z,4.40
2019-05-07T11:24:00.035Z,2.93
2019-05-07T11:26:29.726Z,3.03
2019-05-07T11:28:57.865Z,2.13
2019-05-07T11:31:26.118Z,4.67
2019-05-07T11:33:55.048Z,2.50
2019-05-07T11:36:23.232Z,2.60
2019-05-07T11:38:52.706Z,2.00
2019-05-07T11:41:32.023Z,2.10
2019-05-07T11:44:06.258Z,2.40
2019-05-07T11:47:00.101Z,5.37
2019-05-07T11:49:46.672Z,4.97
2019-05-07T11:52:17.942Z,4.10
2019-05-07T11:54:46.143Z,1.87
2019-05-07T11:57:15.123Z,5.77
2019-05-07T11:59:43.262Z,3.33
2019-05-07T12:02:12.199Z,1.60
2019-05-07T12:04:42.241Z,2.93
2019-05-07T12:07:11.901Z,2.13
2019-05-07T12:09:40.722Z,1.27
2019-05-07T12:12:08.902Z,8.67
2019-05-07T12:14:37.687Z,4.87
2019-05-07T12:17:05.959Z,1.53
2019-05-07T12:19:34.693Z,3.90
2019-05-07T12:22:04.405Z,2.70
2019-05-07T12:24:33.191Z,2.20
2019-05-07T12:27:02.694Z,3.47
2019-05-07T12:29:32.236Z,5.20
2019-05-07T12:32:12.988Z,2.13
2019-05-07T12:34:44.764Z,1.77
2019-05-07T12:37:12.966Z,4.57
2019-05-07T12:39:42.303Z,2.60
2019-05-07T12:42:12.068Z,3.00
2019-05-07T12:44:42.426Z,5.37
2019-05-07T12:47:12.045Z,1.97
2019-05-07T12:49:42.829Z,3.47
2019-05-07T12:52:18.051Z,2.20
2019-05-07T12:55:04.640Z,4.83
2019-05-07T12:57:32.820Z,2.73
2019-05-07T13:00:19.361Z,2.80
2019-05-07T13:03:12.794Z,3.17
2019-05-07T13:05:41.730Z,1.53
2019-05-07T13:08:12.239Z,4.73
2019-05-07T13:10:42.718Z,3.73
2019-05-07T13:13:12.304Z,5.97
2019-05-07T13:15:43.186Z,2.97
2019-05-07T13:18:12.678Z,5.17
2019-05-07T13:20:41.095Z,2.23
2019-05-07T13:23:11.927Z,3.30
2019-05-07T13:25:40.400Z,3.30
2019-05-07T13:28:08.584Z,2.30
2019-05-07T13:30:36.721Z,3.63
2019-05-07T13:33:06.658Z,2.63
2019-05-07T13:35:35.934Z,2.83
2019-05-07T13:38:23.871Z,1.17
2019-05-07T13:41:05.470Z,2.57
2019-05-07T13:43:39.638Z,2.77
2019-05-07T13:46:12.135Z,3.17
2019-05-07T13:48:43.974Z,2.43
2019-05-07T13:51:12.280Z,7.40
2019-05-07T13:53:42.727Z,3.07
2019-05-07T13:56:12.848Z,2.30
2019-05-07T13:58:42.889Z,3.77
2019-05-07T14:01:35.947Z,2.70
2019-05-07T14:04:04.539Z,3.80
2019-05-07T14:06:39.096Z,1.87
2019-05-07T14:09:17.726Z,2.50
2019-05-07T14:11:46.271Z,2.10
2019-05-07T14:14:14.477Z,3.67
2019-05-07T14:16:44.993Z,4.87
2019-05-07T14:19:13.965Z,2.97
2019-05-07T14:21:42.375Z,1.30
2019-05-07T14:24:12.356Z,3.03
2019-05-07T14:26:42.267Z,3.40
2019-05-07T14:29:11.469Z,2.40
2019-05-07T14:31:42.562Z,3.50
2019-05-07T14:34:32.158Z,2.97
2019-05-07T14:37:12.913Z,2.20
2019-05-07T14:39:42.560Z,3.00
2019-05-07T14:42:14.852Z,2.80
2019-05-07T14:44:50.177Z,5.17
2019-05-07T14:47:19.185Z,5.73
2019-05-07T14:49:48.711Z,6.43
2019-05-07T14:52:29.165Z,5.77
2019-05-07T14:54:49.424Z,1.90
2019-05-07T14:57:17.673Z,3.70
2019-05-07T14:59:46.556Z,3.87
2019-05-07T15:02:14.808Z,3.43
2019-05-07T15:04:43.203Z,4.03
2019-05-07T15:07:12.121Z,6.53
2019-05-07T15:09:42.454Z,4.83
2019-05-07T15:12:12.442Z,4.40
2019-05-07T15:14:42.154Z,4.10
2019-05-07T15:17:18.593Z,2.73
2019-05-07T15:19:46.779Z,3.93
2019-05-07T15:22:46.194Z,2.50
2019-05-07T15:25:05.222Z,3.60
2019-05-07T15:27:33.825Z,4.43
2019-05-07T15:30:02.422Z,2.10
2019-05-07T15:32:32.330Z,2.70
2019-05-07T15:35:02.232Z,3.57
2019-05-07T15:37:32.234Z,4.60
2019-05-07T15:40:02.507Z,4.00
2019-05-07T15:42:32.684Z,3.07
2019-05-07T15:45:09.361Z,3.57
2019-05-07T15:47:42.474Z,4.53
2019-05-07T15:50:12.567Z,2.17
2019-05-07T15:53:01.759Z,5.23
2019-05-07T15:55:30.607Z,7.20
2019-05-07T15:58:00.025Z,1.90
2019-05-07T16:00:30.459Z,2.20
2019-05-07T16:03:12.429Z,11.83
2019-05-07T16:05:42.510Z,3.03
2019-05-07T16:08:13.174Z,4.90
2019-05-07T16:10:42.661Z,5.43
2019-05-07T16:13:13.736Z,4.33
2019-05-07T16:15:42.690Z,4.33
2019-05-07T16:18:14.737Z,5.23
2019-05-07T16:20:43.042Z,3.43
2019-05-07T16:23:15.669Z,5.23
2019-05-07T16:25:42.245Z,2.50
2019-05-07T16:28:12.763Z,5.80
2019-05-07T16:30:42.710Z,3.10
2019-05-07T16:33:12.826Z,3.07
2019-05-07T16:35:42.489Z,3.17
2019-05-07T16:38:14.461Z,6.33
2019-05-07T16:40:42.847Z,4.73
2019-05-07T16:43:12.182Z,3.17
2019-05-07T16:45:42.325Z,3.43
2019-05-07T16:48:11.982Z,5.93
2019-05-07T16:50:40.722Z,4.33
2019-05-07T16:53:09.392Z,4.30
2019-05-07T16:55:38.445Z,7.07
2019-05-07T16:58:26.282Z,9.70
2019-05-07T17:01:00.200Z,3.13
2019-05-07T17:03:35.045Z,3.87
2019-05-07T17:06:03.958Z,4.90
2019-05-07T17:08:38.136Z,4.17
2019-05-07T17:11:06.321Z,4.87
2019-05-07T17:13:34.451Z,4.20
2019-05-07T17:16:03.534Z,5.53
2019-05-07T17:18:32.637Z,2.77
2019-05-07T17:21:02.034Z,4.60
2019-05-07T17:23:43.632Z,2.77
2019-05-07T17:26:00.682Z,4.63
2019-05-07T17:28:29.164Z,4.07
2019-05-07T17:30:57.376Z,5.90
2019-05-07T17:33:25.521Z,2.23
2019-05-07T17:35:54.430Z,6.87
2019-05-07T17:38:23.086Z,4.07
2019-05-07T17:40:52.381Z,6.40
2019-05-07T17:43:21.996Z,5.23
2019-05-07T17:45:52.258Z,5.17
2019-05-07T17:48:23.019Z,4.37
2019-05-07T17:51:13.784Z,3.33
2019-05-07T17:53:50.452Z,5.10
2019-05-07T17:56:12.835Z,6.43
2019-05-07T17:58:42.683Z,6.40
2019-05-07T18:01:11.694Z,4.23
2019-05-07T18:03:42.324Z,4.67
2019-05-07T18:06:12.348Z,3.67
2019-05-07T18:08:40.671Z,3.90
2019-05-07T18:11:20.147Z,3.50
2019-05-07T18:13:38.973Z,3.70
2019-05-07T18:16:14.412Z,8.33
2019-05-07T18:18:43.188Z,4.47
2019-05-07T18:21:12.589Z,3.47
2019-05-07T18:23:41.460Z,5.10
2019-05-07T18:26:09.736Z,4.30
2019-05-07T18:28:38.200Z,5.67
2019-05-07T18:31:06.454Z,9.27
2019-05-07T18:33:41.803Z,5.33
2019-05-07T18:36:12.096Z,5.33
2019-05-07T18:38:42.397Z,6.50
2019-05-07T18:41:12.347Z,6.97
2019-05-07T18:43:42.119Z,5.70
2019-05-07T18:46:12.639Z,6.43
2019-05-07T18:48:42.631Z,3.93
2019-05-07T18:51:12.121Z,5.43
2019-05-07T18:53:42.340Z,7.00
2019-05-07T18:56:12.456Z,6.20
2019-05-07T18:58:42.633Z,4.70
2019-05-07T19:01:12.438Z,5.33
2019-05-07T19:03:42.035Z,4.67
2019-05-07T19:06:13.149Z,5.20
2019-05-07T19:08:42.255Z,3.60
2019-05-07T19:11:12.353Z,5.53
2019-05-07T19:13:42.141Z,4.57
2019-05-07T19:16:12.501Z,5.13
2019-05-07T19:18:43.043Z,4.20
2019-05-07T19:21:11.390Z,4.13
2019-05-07T19:23:42.182Z,3.03
2019-05-07T19:26:12.827Z,8.47
2019-05-07T19:28:40.919Z,6.67
2019-05-07T19:31:09.273Z,4.97
2019-05-07T19:33:41.923Z,6.10
2019-05-07T19:36:11.142Z,4.83
2019-05-07T19:38:43.578Z,9.37
2019-05-07T19:41:12.641Z,4.60
2019-05-07T19:43:41.982Z,6.20
2019-05-07T19:46:12.391Z,9.20
2019-05-07T19:48:46.841Z,3.93
2019-05-07T19:51:28.989Z,5.77
2019-05-07T19:53:57.447Z,6.00
2019-05-07T19:56:28.103Z,6.63
2019-05-07T19:58:56.524Z,7.07
2019-05-07T20:01:36.536Z,5.43
2019-05-07T20:04:04.672Z,9.83
2019-05-07T20:06:33.460Z,5.97
2019-05-07T20:09:09.923Z,5.57
2019-05-07T20:11:42.585Z,4.77
2019-05-07T20:14:11.193Z,4.77
2019-05-07T20:16:39.475Z,4.83
2019-05-07T20:19:07.642Z,4.50
2019-05-07T20:21:35.868Z,4.73
2019-05-07T20:24:04.300Z,2.93
2019-05-07T20:26:32.932Z,6.60
2019-05-07T20:29:03.018Z,6.10
2019-05-07T20:31:33.518Z,9.43
2019-05-07T20:34:06.336Z,5.96
2019-05-07T20:36:34.683Z,7.13
2019-05-07T20:39:05.731Z,8.83
2019-05-07T20:41:33.926Z,5.13
2019-05-07T20:44:03.028Z,5.57
2019-05-07T20:46:32.018Z,7.47
2019-05-07T20:49:02.658Z,10.73
2019-05-07T20:51:32.489Z,6.80
2019-05-07T20:54:22.697Z,6.37
2019-05-07T20:57:05.536Z,6.07
2019-05-07T20:59:34.021Z,8.07
2019-05-07T21:02:02.480Z,5.20
2019-05-07T21:04:33.034Z,7.73
2019-05-07T21:07:02.147Z,8.60
2019-05-07T21:09:32.802Z,8.13
2019-05-07T21:12:01.238Z,10.60
2019-05-07T21:14:32.267Z,8.60
2019-05-07T21:17:00.323Z,6.83
2019-05-07T21:19:28.565Z,8.47
2019-05-07T21:21:56.843Z,10.97
2019-05-07T21:24:25.387Z,9.33
2019-05-07T21:26:53.574Z,8.43
2019-05-07T21:29:21.788Z,8.53
2019-05-07T21:31:52.288Z,9.87
2019-05-07T21:34:22.828Z,7.67
2019-05-07T21:36:52.391Z,8.50
2019-05-07T21:39:22.347Z,7.20
2019-05-07T21:41:51.962Z,8.73
2019-05-07T21:44:25.020Z,9.67
2019-05-07T21:46:51.822Z,8.43
2019-05-07T21:49:22.269Z,7.60
2019-05-07T21:51:52.240Z,9.50
2019-05-07T21:54:27.684Z,7.47
2019-05-07T21:57:17.358Z,7.87
2019-05-07T21:59:45.493Z,9.33
2019-05-07T22:02:22.089Z,8.73
2019-05-07T22:04:52.755Z,8.70
2019-05-07T22:07:22.724Z,9.10
2019-05-07T22:09:52.343Z,9.13
2019-05-07T22:12:22.616Z,9.57
2019-05-07T22:14:50.908Z,8.80
2019-05-07T22:17:19.424Z,7.13
2019-05-07T22:19:47.653Z,10.37
2019-05-07T22:22:16.043Z,10.37
2019-05-07T22:24:44.875Z,8.77
2019-05-07T22:27:13.081Z,12.40
2019-05-07T22:29:42.186Z,9.37
2019-05-07T22:32:32.980Z,7.07
2019-05-07T22:35:07.234Z,10.03
2019-05-07T22:37:35.391Z,8.50
2019-05-07T22:40:04.494Z,8.07
2019-05-07T22:42:32.846Z,10.77
2019-05-07T22:45:02.792Z,8.97
2019-05-07T22:47:32.635Z,9.87
2019-05-07T22:50:02.767Z,8.23
2019-05-07T22:52:32.628Z,10.83
2019-05-07T22:55:01.270Z,13.50
2019-05-07T22:57:52.562Z,11.57
2019-05-07T23:00:32.153Z,9.90
2019-05-07T23:03:02.766Z,13.10
2019-05-07T23:05:32.384Z,13.17
2019-05-07T23:08:02.445Z,12.23
2019-05-07T23:10:33.106Z,11.83
2019-05-07T23:13:02.303Z,12.17
2019-05-07T23:15:32.171Z,11.60
2019-05-07T23:18:04.168Z,8.97
2019-05-07T23:20:31.957Z,10.27
2019-05-07T23:23:00.423Z,11.53
2019-05-07T23:25:28.894Z,11.83
2019-05-07T23:27:57.278Z,12.13
2019-05-07T23:30:25.583Z,10.70
2019-05-07T23:32:53.843Z,9.97
2019-05-07T23:35:22.312Z,10.27
2019-05-07T23:37:52.999Z,12.13
2019-05-07T23:40:32.165Z,14.33
2019-05-07T23:43:03.404Z,11.13
2019-05-07T23:45:31.730Z,11.20
2019-05-07T23:47:59.912Z,15.80
2019-05-07T23:50:28.575Z,13.87
2019-05-07T23:52:57.047Z,16.10
2019-05-07T23:55:25.638Z,14.30
2019-05-07T23:57:54.018Z,13.27
